Time;durP1;ratioP1;P1;durP2;ratioP2;P2;SDS_P1;SDS_P2;PMS_P1;PMS_P2;Temp;Humidity;BMP_temperature;BMP_pressure;BME280_temperature;BME280_humidity;BME280_pressure;Samples;Min_cycle;Max_cycle;Signal;HPM_P1;HPM_P2
2022/05/19 00:00:14;;;;;;;;;;;;;;;17.58;55.01;97333.66;30001;983;1859;-56
2022/05/19 00:01:04;;;;;;;;;;;;;;;17.57;55.58;97335.59;30001;983;1872;-56
2022/05/19 00:01:35;;;;;;;;;;;;;;;17.55;55.16;97334.31;30001;983;1877;-57
2022/05/19 00:02:07;;;;;;;;;;;;;;;17.55;55.66;97334.31;30001;983;1881;-56
2022/05/19 00:02:39;;;;;;;;;;;;;;;17.55;55.03;97335.13;30001;983;1877;-59
2022/05/19 00:03:10;;;;;;;;;;;;;;;17.55;55.30;97334.31;30001;983;1881;-59
2022/05/19 00:03:41;;;;;;;;;;;;;;;17.54;54.93;97332.69;30001;983;1864;-59
2022/05/19 00:04:16;;;;;;;;;;;;;;;17.53;54.97;97331.09;30001;982;1873;-59
2022/05/19 00:04:47;;;;;;;;;;;;;;;17.51;54.95;97328.66;30001;982;1877;-59
2022/05/19 00:05:21;;;;;;;;;;;;;;;17.51;55.05;97336.09;30001;982;1882;-60
2022/05/19 00:05:52;;;;;;;;;;;;;;;17.51;54.79;97333.34;30001;982;1877;-56
2022/05/19 00:06:23;;;;;;;;;;;;;;;17.50;55.11;97337.22;30001;983;1881;-56
2022/05/19 00:06:54;;;;;;;;;;;;;;;17.49;55.33;97330.12;30001;983;1863;-57
2022/05/19 00:07:24;;;;;;;;;;;;;;;17.50;54.98;97331.75;30001;983;1872;-56
2022/05/19 00:07:55;;;;;;;;;;;;;;;17.48;55.16;97328.50;30001;983;1877;-56
2022/05/19 00:08:27;;;;;;;;;;;;;;;17.47;55.28;97338.69;30001;983;1881;-57
2022/05/19 00:08:59;;;;;;;;;;;;;;;17.47;54.93;97326.91;30001;983;1877;-59
2022/05/19 00:09:30;;;;;;;;;;;;;;;17.47;55.43;97332.38;30001;983;1881;-57
2022/05/19 00:10:01;;;;;;;;;;;;;;;17.45;54.91;97329.16;30001;983;1864;-56
2022/05/19 00:10:31;;;;;;;;;;;;;;;17.42;55.29;97330.63;30001;983;1860;-59
2022/05/19 00:11:06;;;;;;;;;;;;;;;17.42;55.29;97330.63;30001;983;1877;-56
2022/05/19 00:11:37;;;;;;;;;;;;;;;17.42;54.80;97325.94;30001;982;1882;-55
2022/05/19 00:12:11;;;;;;;;;;;;;;;17.41;54.57;97327.06;30001;982;1864;-56
2022/05/19 00:12:41;;;;;;;;;;;;;;;17.44;54.47;97320.13;30001;982;1873;-58
2022/05/19 00:13:15;;;;;;;;;;;;;;;17.43;54.22;97319.31;30001;982;1878;-58
2022/05/19 00:13:46;;;;;;;;;;;;;;;17.46;54.21;97317.06;30001;982;1882;-59
2022/05/19 00:14:17;;;;;;;;;;;;;;;17.46;54.30;97325.28;30001;983;1877;-58
2022/05/19 00:14:48;;;;;;;;;;;;;;;17.45;54.20;97315.44;30001;983;1881;-56
2022/05/19 00:15:19;;;;;;;;;;;;;;;17.45;53.84;97321.75;30001;983;1877;-60
2022/05/19 00:15:50;;;;;;;;;;;;;;;17.45;53.92;97312.72;30001;983;1868;-59
2022/05/19 00:16:21;;;;;;;;;;;;;;;17.45;54.06;97323.69;30001;983;1868;-56
2022/05/19 00:16:56;;;;;;;;;;;;;;;17.43;54.15;97316.59;30001;983;1881;-56
2022/05/19 00:17:27;;;;;;;;;;;;;;;17.42;54.37;97314.16;30001;963;1897;-56
2022/05/19 00:17:58;;;;;;;;;;;;;;;17.42;54.50;97317.72;30001;983;1882;-59
2022/05/19 00:18:29;;;;;;;;;;;;;;;17.40;54.46;97322.72;30001;982;1877;-56
2022/05/19 00:19:01;;;;;;;;;;;;;;;17.39;54.62;97315.63;30001;982;1869;-57
2022/05/19 00:19:31;;;;;;;;;;;;;;;17.38;54.69;97321.44;30001;982;1869;-56
2022/05/19 00:20:03;;;;;;;;;;;;;;;17.36;54.70;97315.47;30001;982;1882;-57
2022/05/19 00:20:34;;;;;;;;;;;;;;;17.34;54.75;97323.22;30001;982;1877;-59
2022/05/19 00:21:05;;;;;;;;;;;;;;;17.32;54.65;97320.81;30001;982;1882;-59
2022/05/19 00:21:37;;;;;;;;;;;;;;;17.31;54.90;97319.22;30001;983;1877;-59
2022/05/19 00:22:12;;;;;;;;;;;;;;;17.30;54.74;97322.28;30001;983;1881;-57
2022/05/19 00:22:43;;;;;;;;;;;;;;;17.29;55.24;97323.41;30001;983;1877;-56
2022/05/19 00:23:14;;;;;;;;;;;;;;;17.28;55.33;97314.38;30001;983;1881;-57
2022/05/19 00:23:46;;;;;;;;;;;;;;;17.27;55.32;97318.25;30001;983;1864;-60
2022/05/19 00:24:20;;;;;;;;;;;;;;;17.26;55.44;97311.16;30001;983;1872;-59
2022/05/19 00:24:50;;;;;;;;;;;;;;;17.26;55.48;97319.38;30001;983;1877;-59
2022/05/19 00:25:22;;;;;;;;;;;;;;;17.26;55.39;97319.38;30001;983;1881;-59
2022/05/19 00:25:53;;;;;;;;;;;;;;;17.26;55.08;97315.81;30001;982;1877;-59
2022/05/19 00:26:25;;;;;;;;;;;;;;;17.26;54.83;97313.09;30001;982;1882;-57
2022/05/19 00:26:57;;;;;;;;;;;;;;;17.26;54.57;97304.84;30001;982;1877;-57
2022/05/19 00:27:28;;;;;;;;;;;;;;;17.26;54.60;97310.34;30001;982;1882;-59
2022/05/19 00:27:58;;;;;;;;;;;;;;;17.26;54.23;97311.16;30001;982;1864;-58
2022/05/19 00:28:30;;;;;;;;;;;;;;;17.25;54.27;97312.28;30001;982;1873;-56
2022/05/19 00:29:00;;;;;;;;;;;;;;;17.25;54.44;97303.25;30001;987;1877;-56
2022/05/19 00:29:32;;;;;;;;;;;;;;;17.25;53.97;97309.53;30001;983;1796;-56
2022/05/19 00:30:06;;;;;;;;;;;;;;;17.27;54.31;97309.22;30001;983;1877;-56
2022/05/19 00:30:38;;;;;;;;;;;;;;;17.28;54.03;97308.09;30001;983;1881;-57
2022/05/19 00:31:09;;;;;;;;;;;;;;;17.27;54.17;97307.28;30001;983;1877;-56
2022/05/19 00:31:41;;;;;;;;;;;;;;;17.27;54.03;97312.75;30001;983;1881;-56
2022/05/19 00:32:14;;;;;;;;;;;;;;;17.27;54.19;97304.53;30001;983;1877;-56
2022/05/19 00:32:45;;;;;;;;;;;;;;;17.27;54.48;97301.78;30001;983;1868;-56
2022/05/19 00:33:18;;;;;;;;;;;;;;;17.26;54.33;97304.84;30001;986;1855;-59
2022/05/19 00:33:49;;;;;;;;;;;;;;;17.27;54.58;97307.28;30001;982;1881;-56
2022/05/19 00:34:20;;;;;;;;;;;;;;;17.26;54.37;97299.38;30001;982;1877;-56
2022/05/19 00:34:51;;;;;;;;;;;;;;;17.24;54.43;97307.94;30001;982;1882;-56
2022/05/19 00:35:22;;;;;;;;;;;;;;;17.23;54.59;97305.50;30001;982;1878;-57
2022/05/19 00:35:53;;;;;;;;;;;;;;;17.22;54.83;97310.19;30001;982;1882;-58
2022/05/19 00:36:23;;;;;;;;;;;;;;;17.20;55.01;97304.22;30001;982;1877;-59
2022/05/19 00:37:01;;;;;;;;;;;;;;;17.18;54.98;97301.00;30001;983;1868;-59
2022/05/19 00:37:32;;;;;;;;;;;;;;;17.17;55.22;97304.88;30001;983;1868;-57
2022/05/19 00:38:05;;;;;;;;;;;;;;;17.15;55.33;97298.91;30001;983;1881;-56
2022/05/19 00:38:36;;;;;;;;;;;;;;;17.13;55.19;97301.16;30001;983;1877;-56
2022/05/19 00:39:10;;;;;;;;;;;;;;;17.11;55.53;97297.94;30001;983;1881;-58
2022/05/19 00:39:41;;;;;;;;;;;;;;;17.09;55.82;97308.41;30001;983;1877;-56
2022/05/19 00:40:17;;;;;;;;;;;;;;;17.05;55.62;97307.47;30001;983;1881;-57
2022/05/19 00:40:50;;;;;;;;;;;;;;;17.02;55.75;97310.84;30001;982;1877;-57
2022/05/19 00:41:21;;;;;;;;;;;;;;;16.99;55.82;97308.75;30001;982;1882;-55
2022/05/19 00:42:43;;;;;;;;;;;;;;;16.96;56.64;97306.69;30001;982;1877;-56
2022/05/19 00:42:45;;;;;;;;;;;;;;;16.92;56.59;97301.03;30001;982;1869;-56
2022/05/19 00:43:26;;;;;;;;;;;;;;;16.91;56.73;97298.62;30001;982;1869;-56
2022/05/19 00:44:02;;;;;;;;;;;;;;;16.86;56.33;97304.25;30001;982;1882;-56
2022/05/19 00:44:32;;;;;;;;;;;;;;;16.83;56.83;97307.66;30001;983;1877;-58
2022/05/19 00:45:04;;;;;;;;;;;;;;;16.80;57.80;97305.53;30001;983;1881;-56
2022/05/19 00:45:40;;;;;;;;;;;;;;;16.74;57.72;97297.47;30001;983;1877;-57
2022/05/19 00:46:18;;;;;;;;;;;;;;;16.70;57.56;97298.44;30001;983;1868;-57
2022/05/19 00:46:54;;;;;;;;;;;;;;;16.68;57.73;97300.69;30001;983;1868;-57
2022/05/19 00:47:31;;;;;;;;;;;;;;;16.66;57.69;97302.97;30001;983;1882;-58
2022/05/19 00:48:05;;;;;;;;;;;;;;;16.61;57.69;97301.19;30001;983;1877;-56
2022/05/19 00:48:51;;;;;;;;;;;;;;;16.58;58.01;97301.81;30001;982;1882;-57
2022/05/19 00:49:27;;;;;;;;;;;;;;;16.53;58.14;97299.22;30001;982;1864;-57
2022/05/19 00:49:58;;;;;;;;;;;;;;;16.49;58.25;97298.25;30001;982;1873;-56
2022/05/19 00:50:34;;;;;;;;;;;;;;;16.47;58.66;97291.50;30001;982;1878;-56
2022/05/19 00:51:07;;;;;;;;;;;;;;;16.45;58.59;97302.75;30001;983;1868;-56
2022/05/19 00:52:01;;;;;;;;;;;;;;;16.42;58.89;97293.25;30001;983;1868;-56
2022/05/19 00:52:36;;;;;;;;;;;;;;;16.38;58.73;97296.94;30001;957;1903;-56
2022/05/19 00:53:09;;;;;;;;;;;;;;;16.37;59.02;97300.81;30001;983;1877;-56
2022/05/19 00:53:46;;;;;;;;;;;;;;;16.31;59.27;97297.41;30001;983;1868;-56
2022/05/19 00:54:24;;;;;;;;;;;;;;;16.28;60.07;97297.28;30001;983;1868;-57
2022/05/19 00:55:13;;;;;;;;;;;;;;;16.23;59.63;97292.75;30001;983;1882;-56
2022/05/19 00:55:46;;;;;;;;;;;;;;;16.22;59.57;97293.88;30001;983;1877;-55
2022/05/19 00:56:24;;;;;;;;;;;;;;;16.23;59.22;97300.97;30001;982;1869;-56
2022/05/19 00:57:01;;;;;;;;;;;;;;;16.22;59.46;97293.06;30001;982;1869;-57
2022/05/19 00:57:34;;;;;;;;;;;;;;;16.22;59.81;97298.53;30001;982;1882;-57
2022/05/19 00:58:08;;;;;;;;;;;;;;;16.19;60.62;97300.00;30001;982;1878;-57
2022/05/19 00:58:44;;;;;;;;;;;;;;;16.17;59.91;97299.50;30001;983;1881;-57
2022/05/19 00:59:19;;;;;;;;;;;;;;;16.18;60.00;97303.84;30001;983;1877;-56
2022/05/19 00:59:52;;;;;;;;;;;;;;;16.19;59.62;97301.91;30001;983;1881;-56
2022/05/19 01:00:24;;;;;;;;;;;;;;;16.19;59.22;97304.66;30001;983;1877;-56
2022/05/19 01:00:56;;;;;;;;;;;;;;;16.18;59.76;97300.31;30001;983;1868;-57
2022/05/19 01:01:27;;;;;;;;;;;;;;;16.15;59.49;97296.28;30001;983;1855;-57
2022/05/19 01:01:58;;;;;;;;;;;;;;;16.13;59.32;97295.78;30001;983;1882;-56
2022/05/19 01:02:33;;;;;;;;;;;;;;;16.12;59.89;97294.16;30001;983;1877;-57
2022/05/19 01:03:04;;;;;;;;;;;;;;;16.11;59.81;97297.22;30001;983;1882;-56
2022/05/19 01:03:45;;;;;;;;;;;;;;;16.09;59.78;97301.09;30001;982;1877;-56
2022/05/19 01:04:24;;;;;;;;;;;;;;;16.08;59.33;97294.00;30001;982;1882;-56
2022/05/19 01:05:01;;;;;;;;;;;;;;;16.05;60.32;97294.63;30001;982;1878;-56
2022/05/19 01:05:34;;;;;;;;;;;;;;;16.00;60.36;97286.56;30001;982;1882;-57
2022/05/19 01:06:11;;;;;;;;;;;;;;;15.98;60.34;97291.56;30001;983;1877;-57
2022/05/19 01:06:43;;;;;;;;;;;;;;;15.98;60.40;97285.28;30001;983;1868;-56
2022/05/19 01:07:17;;;;;;;;;;;;;;;15.98;60.32;97288.81;30001;983;1868;-56
2022/05/19 01:07:54;;;;;;;;;;;;;;;15.98;60.53;97290.75;30001;983;1881;-58
2022/05/19 01:08:40;;;;;;;;;;;;;;;15.95;60.13;97289.44;30001;983;1877;-56
2022/05/19 01:09:14;;;;;;;;;;;;;;;15.94;60.58;97290.56;30001;983;1882;-57
2022/05/19 01:09:45;;;;;;;;;;;;;;;15.90;61.11;97292.34;30001;983;1877;-56
2022/05/19 01:10:17;;;;;;;;;;;;;;;15.89;60.38;97285.28;30001;983;1868;-57
2022/05/19 01:10:48;;;;;;;;;;;;;;;15.89;60.66;97285.28;30001;983;1868;-57
2022/05/19 01:11:19;;;;;;;;;;;;;;;15.86;60.75;97285.09;30001;982;1882;-57
2022/05/19 01:11:55;;;;;;;;;;;;;;;15.86;61.03;97290.56;30001;982;1878;-56
2022/05/19 01:12:28;;;;;;;;;;;;;;;15.84;60.46;97288.16;30001;982;1882;-56
2022/05/19 01:12:59;;;;;;;;;;;;;;;15.84;60.69;97290.88;30001;982;1878;-57
2022/05/19 01:13:31;;;;;;;;;;;;;;;15.84;60.85;97287.34;30001;983;1881;-57
2022/05/19 01:14:03;;;;;;;;;;;;;;;15.83;60.60;97283.78;30001;983;1864;-57
2022/05/19 01:14:34;;;;;;;;;;;;;;;15.83;60.69;97286.53;30001;983;1872;-57
2022/05/19 01:15:05;;;;;;;;;;;;;;;15.82;61.09;97282.19;30001;983;1877;-57
2022/05/19 01:15:40;;;;;;;;;;;;;;;15.79;60.60;97274.59;30001;983;1881;-57
2022/05/19 01:16:12;;;;;;;;;;;;;;;15.81;60.51;97287.97;30001;983;1877;-57
2022/05/19 01:16:46;;;;;;;;;;;;;;;15.80;60.30;97278.94;30001;983;1882;-57
2022/05/19 01:17:16;;;;;;;;;;;;;;;15.80;60.86;97284.44;30001;983;1877;-56
2022/05/19 01:17:49;;;;;;;;;;;;;;;15.77;60.82;97281.50;30001;982;1882;-56
2022/05/19 01:18:20;;;;;;;;;;;;;;;15.75;60.68;97284.56;30001;974;1883;-56
2022/05/19 01:18:51;;;;;;;;;;;;;;;15.74;60.69;97285.69;30001;982;1873;-57
2022/05/19 01:19:38;;;;;;;;;;;;;;;15.71;62.04;97283.56;30001;982;1878;-56
2022/05/19 01:20:17;;;;;;;;;;;;;;;15.67;61.36;97279.84;30001;982;1882;-57
2022/05/19 01:20:48;;;;;;;;;;;;;;;15.67;61.16;97279.84;30001;982;1877;-57
2022/05/19 01:21:20;;;;;;;;;;;;;;;15.68;61.20;97284.22;30001;983;1881;-57
2022/05/19 01:21:53;;;;;;;;;;;;;;;15.66;61.43;97281.78;30001;983;1864;-57
2022/05/19 01:22:42;;;;;;;;;;;;;;;15.68;61.44;97281.47;30001;983;1872;-57
2022/05/19 01:23:24;;;;;;;;;;;;;;;15.66;61.47;97279.06;30001;983;1868;-57
2022/05/19 01:24:16;;;;;;;;;;;;;;;15.64;61.16;97272.28;30001;983;1881;-56
2022/05/19 01:24:53;;;;;;;;;;;;;;;15.64;61.50;97277.75;30001;983;1877;-57
2022/05/19 01:25:47;;;;;;;;;;;;;;;15.63;60.90;97282.41;30001;982;1881;-56
2022/05/19 01:26:23;;;;;;;;;;;;;;;15.64;61.52;97283.22;30001;982;1877;-57
2022/05/19 01:26:56;;;;;;;;;;;;;;;15.62;61.20;97280.00;30001;982;1869;-57
2022/05/19 01:27:27;;;;;;;;;;;;;;;15.62;61.20;97277.25;30001;982;1869;-59
2022/05/19 01:27:58;;;;;;;;;;;;;;;15.62;60.75;97280.81;30001;982;1882;-58
2022/05/19 01:28:29;;;;;;;;;;;;;;;15.64;60.92;97277.75;30001;983;1877;-57
2022/05/19 01:29:03;;;;;;;;;;;;;;;15.65;60.59;97279.37;30001;983;1881;-56
2022/05/19 01:29:35;;;;;;;;;;;;;;;15.65;61.44;97274.69;30001;966;1797;-58
2022/05/19 01:30:09;;;;;;;;;;;;;;;15.65;61.76;97282.09;30001;983;1881;-57
2022/05/19 01:30:40;;;;;;;;;;;;;;;15.61;61.47;97273.72;30001;983;1877;-57
2022/05/19 01:31:45;;;;;;;;;;;;;;;15.61;61.68;97276.44;30001;983;1881;-56
2022/05/19 01:32:28;;;;;;;;;;;;;;;15.60;61.33;97280.31;30001;983;1859;-56
2022/05/19 01:32:59;;;;;;;;;;;;;;;15.61;61.44;97272.91;30001;982;1860;-57
2022/05/19 01:33:30;;;;;;;;;;;;;;;15.60;62.33;97276.78;30001;982;1877;-58
2022/05/19 01:34:02;;;;;;;;;;;;;;;15.58;61.43;97273.56;30001;982;1882;-57
2022/05/19 01:34:33;;;;;;;;;;;;;;;15.59;61.30;97269.72;30001;982;1877;-57
2022/05/19 01:35:05;;;;;;;;;;;;;;;15.57;61.96;97272.75;30001;982;1882;-57
2022/05/19 01:35:36;;;;;;;;;;;;;;;15.58;61.39;97273.56;30001;982;1877;-58
2022/05/19 01:36:07;;;;;;;;;;;;;;;15.58;61.47;97273.56;30001;983;1881;-57
2022/05/19 01:36:38;;;;;;;;;;;;;;;15.53;61.53;97276.41;30001;983;1877;-57
2022/05/19 01:37:09;;;;;;;;;;;;;;;15.50;62.00;97274.31;30001;983;1881;-59
2022/05/19 01:37:40;;;;;;;;;;;;;;;15.46;62.24;97278.78;30001;983;1864;-56
2022/05/19 01:38:17;;;;;;;;;;;;;;;15.46;61.57;97270.59;30001;983;1872;-57
2022/05/19 01:38:55;;;;;;;;;;;;;;;15.45;62.17;97271.69;30001;983;1877;-57
2022/05/19 01:39:28;;;;;;;;;;;;;;;15.45;62.06;97271.69;30001;983;1882;-57
2022/05/19 01:40:03;;;;;;;;;;;;;;;15.44;62.22;97268.16;30001;983;1877;-58
2022/05/19 01:40:41;;;;;;;;;;;;;;;15.45;61.88;97280.72;30001;982;1881;-57
2022/05/19 01:41:17;;;;;;;;;;;;;;;15.42;62.60;97275.88;30001;982;1877;-58
2022/05/19 01:42:09;;;;;;;;;;;;;;;15.41;62.28;97274.25;30001;982;1882;-59
2022/05/19 01:42:49;;;;;;;;;;;;;;;15.39;62.36;97271.84;30001;982;1860;-57
2022/05/19 01:43:46;;;;;;;;;;;;;;;15.37;61.88;97271.34;30001;982;1873;-57
2022/05/19 01:44:30;;;;;;;;;;;;;;;15.35;62.38;97276.31;30001;983;1872;-56
2022/05/19 01:45:11;;;;;;;;;;;;;;;15.34;61.91;97269.22;30001;983;1881;-59
2022/05/19 01:45:57;;;;;;;;;;;;;;;15.35;62.40;97275.50;30001;983;1877;-56
2022/05/19 01:46:31;;;;;;;;;;;;;;;15.32;62.83;97265.19;30001;983;1881;-59
2022/05/19 01:47:07;;;;;;;;;;;;;;;15.30;62.26;97268.25;30001;983;1877;-57
2022/05/19 01:47:41;;;;;;;;;;;;;;;15.32;62.05;97263.28;30001;983;1868;-57
2022/05/19 01:48:24;;;;;;;;;;;;;;;15.33;61.89;97270.34;30001;982;1869;-57
2022/05/19 01:49:04;;;;;;;;;;;;;;;15.34;61.72;97266.50;30001;982;1882;-56
2022/05/19 01:49:38;;;;;;;;;;;;;;;15.34;62.11;97265.69;30001;982;1864;-56
2022/05/19 01:50:27;;;;;;;;;;;;;;;15.35;61.59;97264.56;30001;982;1873;-55
2022/05/19 01:51:04;;;;;;;;;;;;;;;15.33;61.46;97270.34;30001;983;1868;-57
2022/05/19 01:51:55;;;;;;;;;;;;;;;15.30;61.75;97261.97;30001;983;1868;-58
2022/05/19 01:52:39;;;;;;;;;;;;;;;15.29;61.88;97263.91;30001;983;1864;-58
2022/05/19 01:53:32;;;;;;;;;;;;;;;15.26;62.16;97264.53;30001;983;1868;-57
2022/05/19 01:54:17;;;;;;;;;;;;;;;15.27;61.78;97265.31;30001;983;1864;-57
2022/05/19 01:54:59;;;;;;;;;;;;;;;15.25;62.71;97260.16;30001;983;1881;-56
2022/05/19 01:55:36;;;;;;;;;;;;;;;15.22;62.04;97266.28;30001;982;1877;-56
2022/05/19 01:56:18;;;;;;;;;;;;;;;15.23;62.07;97262.44;30001;982;1882;-59
2022/05/19 01:57:26;;;;;;;;;;;;;;;15.21;62.39;97261.94;30001;982;1864;-57
2022/05/19 01:58:08;;;;;;;;;;;;;;;15.19;62.23;97266.91;30001;983;1855;-57
2022/05/19 01:59:05;;;;;;;;;;;;;;;15.20;62.27;97263.06;30001;983;1877;-57
2022/05/19 01:59:52;;;;;;;;;;;;;;;15.17;62.45;97258.22;30001;983;1877;-57
2022/05/19 02:00:25;;;;;;;;;;;;;;;15.18;62.08;97264.50;30001;983;1877;-57
2022/05/19 02:00:59;;;;;;;;;;;;;;;15.18;62.32;97259.84;30001;983;1881;-57
2022/05/19 02:01:33;;;;;;;;;;;;;;;15.19;63.42;97255.97;30001;983;1877;-58
2022/05/19 02:02:26;;;;;;;;;;;;;;;15.16;63.48;97256.59;30001;983;1881;-56
2022/05/19 02:03:05;;;;;;;;;;;;;;;15.15;62.58;97252.25;30001;982;1864;-58
2022/05/19 02:04:01;;;;;;;;;;;;;;;15.13;62.64;97254.50;30001;982;1873;-57
2022/05/19 02:04:44;;;;;;;;;;;;;;;15.12;63.76;97250.16;30001;982;1877;-57
2022/05/19 02:05:22;;;;;;;;;;;;;;;15.09;63.62;97256.25;30001;982;1882;-58
2022/05/19 02:05:57;;;;;;;;;;;;;;;15.08;64.49;97251.91;30001;983;1876;-57
2022/05/19 02:06:34;;;;;;;;;;;;;;;15.07;63.69;97263.94;30001;983;1881;-57
2022/05/19 02:07:07;;;;;;;;;;;;;;;15.08;64.01;97254.63;30001;983;1877;-58
2022/05/19 02:07:39;;;;;;;;;;;;;;;15.07;63.28;97253.81;30001;983;1881;-57
2022/05/19 02:08:13;;;;;;;;;;;;;;;15.09;63.12;97253.50;30001;983;1864;-56
2022/05/19 02:08:50;;;;;;;;;;;;;;;15.09;62.72;97261.72;30001;983;1873;-57
2022/05/19 02:09:46;;;;;;;;;;;;;;;15.06;63.47;97256.87;30001;983;1877;-57
2022/05/19 02:10:25;;;;;;;;;;;;;;;15.05;63.35;97255.25;30001;983;1877;-57
2022/05/19 02:11:06;;;;;;;;;;;;;;;15.05;62.65;97255.25;30001;982;1877;-57
2022/05/19 02:11:46;;;;;;;;;;;;;;;15.04;62.94;97261.84;30001;982;1882;-57
2022/05/19 02:12:17;;;;;;;;;;;;;;;15.03;62.77;97252.03;30001;982;1864;-57
2022/05/19 02:12:49;;;;;;;;;;;;;;;15.03;62.69;97261.03;30001;982;1873;-57
2022/05/19 02:13:20;;;;;;;;;;;;;;;15.02;63.16;97255.88;30001;983;1877;-58
2022/05/19 02:13:53;;;;;;;;;;;;;;;15.04;63.04;97259.09;30001;983;1881;-58
2022/05/19 02:14:28;;;;;;;;;;;;;;;15.02;63.21;97261.34;30001;983;1877;-55
2022/05/19 02:15:03;;;;;;;;;;;;;;;15.03;62.63;97257.47;30001;983;1881;-56
2022/05/19 02:15:37;;;;;;;;;;;;;;;15.04;62.74;97261.84;30001;983;1877;-57
2022/05/19 02:16:10;;;;;;;;;;;;;;;15.03;62.71;97257.47;30001;983;1881;-58
2022/05/19 02:16:42;;;;;;;;;;;;;;;15.03;62.76;97261.03;30001;983;1877;-57
2022/05/19 02:17:15;;;;;;;;;;;;;;;15.03;62.75;97262.94;30001;983;1881;-57
2022/05/19 02:17:47;;;;;;;;;;;;;;;15.00;62.97;97263.56;30001;983;1864;-57
2022/05/19 02:18:23;;;;;;;;;;;;;;;14.99;62.74;97268.22;30001;982;1873;-56
2022/05/19 02:18:54;;;;;;;;;;;;;;;14.99;63.00;97262.75;30001;982;1878;-57
2022/05/19 02:19:30;;;;;;;;;;;;;;;14.99;63.26;97264.69;30001;982;1882;-57
2022/05/19 02:20:06;;;;;;;;;;;;;;;14.97;63.70;97265.00;30001;982;1877;-58
2022/05/19 02:20:38;;;;;;;;;;;;;;;14.94;63.28;97262.09;30001;983;1881;-57
2022/05/19 02:21:09;;;;;;;;;;;;;;;14.95;63.21;97266.44;30001;983;1877;-56
2022/05/19 02:21:40;;;;;;;;;;;;;;;14.96;62.97;97265.31;30001;983;1868;-57
2022/05/19 02:22:14;;;;;;;;;;;;;;;14.97;62.72;97266.94;30001;983;1868;-56
2022/05/19 02:22:45;;;;;;;;;;;;;;;14.98;62.62;97266.63;30001;983;1868;-57
2022/05/19 02:23:16;;;;;;;;;;;;;;;14.98;62.53;97265.81;30001;983;1868;-57
2022/05/19 02:23:48;;;;;;;;;;;;;;;14.99;62.42;97267.41;30001;983;1868;-57
2022/05/19 02:24:20;;;;;;;;;;;;;;;15.00;62.59;97266.31;30001;986;1860;-57
2022/05/19 02:24:59;;;;;;;;;;;;;;;15.03;62.35;97265.69;30001;982;1882;-57
2022/05/19 02:25:35;;;;;;;;;;;;;;;15.03;62.35;97268.41;30001;982;1877;-59
2022/05/19 02:26:06;;;;;;;;;;;;;;;15.02;62.12;97262.16;30001;982;1882;-57
2022/05/19 02:26:38;;;;;;;;;;;;;;;15.04;62.47;97270.03;30001;982;1877;-58
2022/05/19 02:27:41;;;;;;;;;;;;;;;15.05;62.48;97263.44;30001;982;1869;-57
2022/05/19 02:28:31;;;;;;;;;;;;;;;15.05;62.09;97267.00;30001;983;1864;-57
2022/05/19 02:29:07;;;;;;;;;;;;;;;15.02;62.32;97258.59;30001;983;1881;-57
2022/05/19 02:29:38;;;;;;;;;;;;;;;15.02;61.99;97266.81;30001;983;1877;-57
2022/05/19 02:30:11;;;;;;;;;;;;;;;15.01;62.01;97270.66;30001;983;1881;-57
2022/05/19 02:30:42;;;;;;;;;;;;;;;15.02;62.32;97266.81;30001;983;1877;-57
2022/05/19 02:31:15;;;;;;;;;;;;;;;15.02;61.79;97266.81;30001;983;1868;-57
2022/05/19 02:31:46;;;;;;;;;;;;;;;15.01;62.09;97262.47;30001;983;1868;-57
2022/05/19 02:32:17;;;;;;;;;;;;;;;15.02;61.73;97258.59;30001;982;1882;-57
2022/05/19 02:32:48;;;;;;;;;;;;;;;15.02;61.50;97258.59;30001;982;1877;-57
2022/05/19 02:33:19;;;;;;;;;;;;;;;15.03;62.18;97262.94;30001;982;1882;-57
2022/05/19 02:33:50;;;;;;;;;;;;;;;15.04;62.00;97264.56;30001;982;1877;-57
2022/05/19 02:34:21;;;;;;;;;;;;;;;15.03;62.18;97262.94;30001;982;1882;-57
2022/05/19 02:34:52;;;;;;;;;;;;;;;15.00;63.15;97258.09;30001;982;1878;-57
2022/05/19 02:35:23;;;;;;;;;;;;;;;14.99;62.67;97265.50;30001;982;1882;-57
2022/05/19 02:35:54;;;;;;;;;;;;;;;14.99;62.83;97261.97;30001;983;1877;-58
2022/05/19 02:36:25;;;;;;;;;;;;;;;14.99;62.39;97261.97;30001;983;1868;-58
2022/05/19 02:36:58;;;;;;;;;;;;;;;14.99;62.42;97267.41;30001;959;1878;-57
2022/05/19 02:37:29;;;;;;;;;;;;;;;14.99;62.50;97268.22;30001;983;1881;-58
2022/05/19 02:38:00;;;;;;;;;;;;;;;15.00;62.79;97263.56;30001;983;1877;-56
2022/05/19 02:38:33;;;;;;;;;;;;;;;15.00;62.74;97269.03;30001;983;1881;-57
2022/05/19 02:39:05;;;;;;;;;;;;;;;14.99;63.00;97265.50;30001;983;1877;-57
2022/05/19 02:39:35;;;;;;;;;;;;;;;15.01;62.56;97266.00;30001;983;1882;-56
2022/05/19 02:40:07;;;;;;;;;;;;;;;15.03;61.90;97273.88;30001;982;1877;-56
2022/05/19 02:40:39;;;;;;;;;;;;;;;15.01;62.11;97262.47;30001;982;1882;-56
2022/05/19 02:41:10;;;;;;;;;;;;;;;15.02;62.43;97266.81;30001;982;1864;-57
2022/05/19 02:41:41;;;;;;;;;;;;;;;15.00;62.20;97269.03;30001;982;1860;-56
2022/05/19 02:42:12;;;;;;;;;;;;;;;15.00;62.77;97264.37;30001;982;1877;-56
2022/05/19 02:42:42;;;;;;;;;;;;;;;15.01;62.52;97270.66;30001;982;1882;-58
2022/05/19 02:43:14;;;;;;;;;;;;;;;15.02;62.48;97269.53;30001;983;1877;-57
2022/05/19 02:43:45;;;;;;;;;;;;;;;15.05;62.07;97271.66;30001;983;1881;-57
2022/05/19 02:44:16;;;;;;;;;;;;;;;15.07;61.69;97269.41;30001;983;1877;-57
2022/05/19 02:44:46;;;;;;;;;;;;;;;15.09;61.41;97265.25;30001;983;1881;-56
2022/05/19 02:45:21;;;;;;;;;;;;;;;15.12;61.26;97271.22;30001;983;1877;-56
2022/05/19 02:45:52;;;;;;;;;;;;;;;15.17;60.33;97263.69;30001;983;1881;-58
2022/05/19 02:46:23;;;;;;;;;;;;;;;15.19;60.44;97261.44;30001;983;1877;-59
2022/05/19 02:46:55;;;;;;;;;;;;;;;15.20;61.31;97265.81;30001;983;1868;-56
2022/05/19 02:47:26;;;;;;;;;;;;;;;15.21;60.66;97270.16;30001;982;1855;-56
2022/05/19 02:47:57;;;;;;;;;;;;;;;15.23;60.38;97270.63;30001;982;1881;-56
2022/05/19 02:48:28;;;;;;;;;;;;;;;15.26;60.31;97267.25;30001;982;1877;-57
2022/05/19 02:49:00;;;;;;;;;;;;;;;15.29;59.95;97271.28;30001;982;1882;-57
2022/05/19 02:49:31;;;;;;;;;;;;;;;15.31;59.99;97264.37;30001;982;1877;-58
2022/05/19 02:50:03;;;;;;;;;;;;;;;15.34;59.27;97263.75;30001;982;1882;-57
2022/05/19 02:50:33;;;;;;;;;;;;;;;15.35;59.88;97261.84;30001;982;1877;-56
2022/05/19 02:51:04;;;;;;;;;;;;;;;15.37;59.54;97263.13;30001;983;1881;-56
2022/05/19 02:51:35;;;;;;;;;;;;;;;15.38;59.62;97259.28;30001;983;1877;-58
2022/05/19 02:52:06;;;;;;;;;;;;;;;15.39;59.23;97260.91;30001;983;1868;-57
2022/05/19 02:52:37;;;;;;;;;;;;;;;15.40;59.48;97256.22;30001;983;1868;-57
2022/05/19 02:53:08;;;;;;;;;;;;;;;15.42;59.00;97259.47;30001;983;1881;-56
2022/05/19 02:53:43;;;;;;;;;;;;;;;15.46;58.94;97262.38;30001;983;1877;-57
2022/05/19 02:54:13;;;;;;;;;;;;;;;15.50;58.67;97255.16;30001;983;1882;-56
2022/05/19 02:54:44;;;;;;;;;;;;;;;15.51;58.96;97256.78;30001;983;1877;-56
2022/05/19 02:55:15;;;;;;;;;;;;;;;15.50;58.69;97257.91;30001;966;1907;-58
2022/05/19 02:55:47;;;;;;;;;;;;;;;15.51;59.04;97262.25;30001;982;1877;-59
2022/05/19 02:56:17;;;;;;;;;;;;;;;15.49;58.77;97259.00;30001;982;1882;-56
2022/05/19 02:56:48;;;;;;;;;;;;;;;15.46;58.97;97262.38;30001;982;1878;-57
2022/05/19 02:57:19;;;;;;;;;;;;;;;15.47;59.16;97261.25;30001;982;1869;-57
2022/05/19 02:57:50;;;;;;;;;;;;;;;15.43;59.66;97261.88;30001;983;1868;-57
2022/05/19 02:58:21;;;;;;;;;;;;;;;15.41;59.53;97258.66;30001;983;1868;-57
2022/05/19 02:58:52;;;;;;;;;;;;;;;15.42;59.59;97257.53;30001;983;1868;-56
2022/05/19 02:59:23;;;;;;;;;;;;;;;15.43;58.97;97269.28;30001;983;1881;-57
2022/05/19 02:59:54;;;;;;;;;;;;;;;15.43;59.11;97267.34;30001;983;1877;-56
2022/05/19 03:00:25;;;;;;;;;;;;;;;15.43;59.07;97259.16;30001;983;1881;-57
2022/05/19 03:00:59;;;;;;;;;;;;;;;15.43;58.97;97259.16;30001;983;1877;-57
2022/05/19 03:01:30;;;;;;;;;;;;;;;15.43;59.01;97256.41;30001;983;1882;-57
2022/05/19 03:02:04;;;;;;;;;;;;;;;15.43;59.11;97256.41;30001;983;1864;-58
2022/05/19 03:02:35;;;;;;;;;;;;;;;15.43;59.04;97256.41;30001;982;1873;-56
2022/05/19 03:03:06;;;;;;;;;;;;;;;15.43;59.44;97261.06;30001;982;1878;-56
2022/05/19 03:03:40;;;;;;;;;;;;;;;15.43;59.12;97259.16;30001;982;1882;-57
2022/05/19 03:04:11;;;;;;;;;;;;;;;15.43;59.51;97261.88;30001;982;1878;-57
2022/05/19 03:04:42;;;;;;;;;;;;;;;15.45;58.87;97268.97;30001;982;1869;-56
2022/05/19 03:05:16;;;;;;;;;;;;;;;15.48;58.62;97258.22;30001;983;1868;-57